Time,TemperatureF,DewpointF,PressureIn,WindDirection,WindDirectionDegrees,WindSpeedMPH,WindSpeedGustMPH,Humidity,HourlyPrecipIn,Conditions,Clouds,dailyrainin,SoftwareType,DateUTC
2013-06-30 00:00:00,86.0,63.5,29.69,SE,135,0.0,4.9,47,0.01,,,0.00,WUHU216HW,2013-06-30 04:00:00,
2013-06-30 00:01:00,86.0,63.5,29.69,SE,135,0.0,4.9,47,0.01,,,0.00,WUHU216HW,2013-06-30 04:01:00,
2013-06-30 00:06:00,86.0,63.5,29.69,SE,135,0.0,4.9,47,0.01,,,0.00,WUHU216HW,2013-06-30 04:06:00,
2013-06-30 04:00:00,86.0,63.5,29.69,SSW,203,0.2,4.9,47,0.00,,,0.00,WUHU216HW,2013-06-30 08:00:00,
2013-06-30 04:05:00,86.0,63.5,29.69,SSW,203,0.2,4.9,47,0.00,,,0.00,WUHU216HW,2013-06-30 08:05:00,
2013-06-30 05:00:00,86.0,63.5,29.70,SSE,158,0.0,4.9,47,0.00,,,0.00,WUHU216HW,2013-06-30 09:00:00,
2013-06-30 05:05:00,86.0,63.5,29.70,SSE,158,0.0,4.9,47,0.00,,,0.00,WUHU216HW,2013-06-30 09:05:00,
2013-06-30 06:00:00,86.0,63.5,29.59,South,180,0.0,4.9,47,0.00,,,0.00,WUHU216HW,2013-06-30 10:00:00,
2013-06-30 06:05:00,86.0,63.5,29.59,South,180,0.0,4.9,47,0.00,,,0.00,WUHU216HW,2013-06-30 10:05:00,
2013-06-30 07:00:00,86.0,63.5,29.59,South,180,0.0,4.9,47,0.00,,,0.00,WUHU216HW,2013-06-30 11:00:00,
2013-06-30 07:05:00,67.3,63.6,29.75,South,180,0.0,4.9,88,0.00,,,0.00,WUHU216HW,2013-06-30 11:05:00,
2013-06-30 07:10:00,67.3,63.6,29.74,SE,135,0.0,4.9,88,0.00,,,0.00,WUHU216HW,2013-06-30 11:10:00,
2013-06-30 07:15:00,67.7,64.0,29.75,SE,135,0.0,4.9,88,0.00,,,0.00,WUHU216HW,2013-06-30 11:15:00,
2013-06-30 07:20:00,67.9,64.2,29.75,SE,135,0.0,4.9,88,0.00,,,0.00,WUHU216HW,2013-06-30 11:20:00,
2013-06-30 07:25:00,68.0,64.4,29.75,SE,135,0.4,4.9,88,0.00,,,0.00,WUHU216HW,2013-06-30 11:25:00,
2013-06-30 07:30:00,68.2,64.5,29.75,SE,135,0.0,4.9,88,0.00,,,0.00,WUHU216HW,2013-06-30 11:30:00,
2013-06-30 07:35:00,68.6,64.9,29.75,NNE,23,0.0,4.9,88,0.00,,,0.00,WUHU216HW,2013-06-30 11:35:00,
2013-06-30 07:40:00,68.8,65.1,29.75,ENE,68,0.0,4.9,88,0.00,,,0.00,WUHU216HW,2013-06-30 11:40:00,
2013-06-30 07:45:00,68.9,65.3,29.75,North,0,0.0,4.9,88,0.00,,,0.00,WUHU216HW,2013-06-30 11:45:00,
2013-06-30 07:50:00,69.1,65.4,29.76,NE,45,0.2,4.9,88,0.00,,,0.00,WUHU216HW,2013-06-30 11:50:00,
2013-06-30 07:55:00,69.1,65.4,29.76,NE,45,0.2,4.9,88,0.00,,,0.00,WUHU216HW,2013-06-30 11:55:00,
2013-06-30 08:00:00,69.3,65.6,29.76,NNW,338,0.0,4.9,88,0.00,,,0.00,WUHU216HW,2013-06-30 12:00:00,
2013-06-30 08:05:00,69.3,65.6,29.76,NNW,338,0.0,4.9,88,0.00,,,0.00,WUHU216HW,2013-06-30 12:05:00,
2013-06-30 09:00:00,86.0,63.5,29.59,SW,225,0.0,4.9,47,0.00,,,0.00,WUHU216HW,2013-06-30 13:00:00,
2013-06-30 09:05:00,86.0,63.5,29.59,SSE,158,0.2,4.9,47,0.00,,,0.00,WUHU216HW,2013-06-30 13:05:00,
2013-06-30 09:10:00,72.7,68.3,29.77,North,0,0.4,4.9,86,0.00,,,0.00,WUHU216HW,2013-06-30 13:10:00,
2013-06-30 09:15:00,73.4,69.0,29.77,North,0,0.2,4.9,86,0.00,,,0.00,WUHU216HW,2013-06-30 13:15:00,
2013-06-30 09:20:00,73.3,68.1,29.77,NE,45,1.1,4.9,84,0.00,,,0.00,WUHU216HW,2013-06-30 13:20:00,
2013-06-30 09:25:00,73.4,68.7,29.77,North,0,0.7,4.9,85,0.00,,,0.00,WUHU216HW,2013-06-30 13:25:00,
2013-06-30 09:30:00,73.8,68.7,29.77,NE,45,0.2,4.9,84,0.00,,,0.00,WUHU216HW,2013-06-30 13:30:00,
2013-06-30 09:35:00,74.5,69.0,29.77,NNE,23,0.0,4.9,83,0.00,,,0.00,WUHU216HW,2013-06-30 13:35:00,
2013-06-30 09:40:00,75.4,69.9,29.76,SW,225,0.0,4.9,83,0.00,,,0.00,WUHU216HW,2013-06-30 13:40:00,
2013-06-30 09:45:00,76.3,70.1,29.76,ESE,113,0.4,4.9,81,0.00,,,0.00,WUHU216HW,2013-06-30 13:45:00,
2013-06-30 09:50:00,76.3,70.1,29.77,SE,135,1.1,4.9,81,0.00,,,0.00,WUHU216HW,2013-06-30 13:50:00,
2013-06-30 09:55:00,76.0,69.4,29.77,North,0,0.4,4.9,80,0.00,,,0.00,WUHU216HW,2013-06-30 13:55:00,
2013-06-30 10:00:00,75.6,69.4,29.76,South,180,0.4,4.9,81,0.00,,,0.00,WUHU216HW,2013-06-30 14:00:00,
2013-06-30 10:05:00,75.2,69.1,29.76,SW,225,0.7,4.9,81,0.00,,,0.00,WUHU216HW,2013-06-30 14:05:00,
2013-06-30 10:10:00,75.2,69.1,29.76,NNE,23,0.7,4.9,81,0.00,,,0.00,WUHU216HW,2013-06-30 14:10:00,
2013-06-30 10:15:00,75.6,69.4,29.76,SSW,203,0.4,4.9,81,0.00,,,0.00,WUHU216HW,2013-06-30 14:15:00,
2013-06-30 10:20:00,76.3,70.1,29.77,North,0,0.4,4.9,81,0.00,,,0.00,WUHU216HW,2013-06-30 14:20:00,
2013-06-30 10:25:00,76.7,70.4,29.76,SSW,203,1.1,4.9,81,0.00,,,0.00,WUHU216HW,2013-06-30 14:25:00,
2013-06-30 10:30:00,77.2,70.6,29.76,WSW,248,0.0,4.9,80,0.00,,,0.00,WUHU216HW,2013-06-30 14:30:00,
2013-06-30 10:35:00,78.3,71.3,29.76,SSE,158,1.1,4.9,79,0.00,,,0.00,WUHU216HW,2013-06-30 14:35:00,
2013-06-30 10:40:00,79.4,71.9,29.76,East,90,1.1,4.9,78,0.00,,,0.00,WUHU216HW,2013-06-30 14:40:00,
2013-06-30 10:45:00,80.3,72.5,29.76,SE,135,0.7,4.9,77,0.00,,,0.00,WUHU216HW,2013-06-30 14:45:00,
2013-06-30 10:50:00,80.5,72.2,29.77,East,90,2.0,4.9,76,0.00,,,0.00,WUHU216HW,2013-06-30 14:50:00,
2013-06-30 10:55:00,79.7,70.8,29.77,NNW,338,0.4,4.9,74,0.00,,,0.00,WUHU216HW,2013-06-30 14:55:00,
2013-06-30 11:00:00,79.4,71.1,29.77,NNE,23,0.2,4.9,76,0.00,,,0.00,WUHU216HW,2013-06-30 15:00:00,
2013-06-30 11:05:00,79.7,71.1,29.77,SSE,158,0.4,4.9,75,0.00,,,0.00,WUHU216HW,2013-06-30 15:05:00,
2013-06-30 11:10:00,79.9,71.3,29.77,NW,315,0.9,4.9,75,0.00,,,0.00,WUHU216HW,2013-06-30 15:10:00,
2013-06-30 11:15:00,80.6,72.0,29.77,SE,135,0.9,4.9,75,0.00,,,0.00,WUHU216HW,2013-06-30 15:15:00,
2013-06-30 11:20:00,81.4,71.1,29.76,WSW,248,1.3,4.9,71,0.00,,,0.00,WUHU216HW,2013-06-30 15:20:00,
2013-06-30 11:25:00,81.9,72.0,29.76,SSW,203,2.5,4.9,72,0.00,,,0.00,WUHU216HW,2013-06-30 15:25:00,
2013-06-30 11:30:00,82.4,72.5,29.76,WSW,248,1.6,4.9,72,0.00,,,0.00,WUHU216HW,2013-06-30 15:30:00,
2013-06-30 11:35:00,82.4,72.1,29.76,SSW,203,1.8,4.9,71,0.00,,,0.00,WUHU216HW,2013-06-30 15:35:00,
2013-06-30 11:40:00,82.4,72.9,29.76,NE,45,0.7,4.9,73,0.00,,,0.00,WUHU216HW,2013-06-30 15:40:00,
2013-06-30 11:45:00,83.2,73.2,29.76,South,180,0.4,4.9,72,0.00,,,0.00,WUHU216HW,2013-06-30 15:45:00,
2013-06-30 11:50:00,83.9,74.3,29.76,SSE,158,2.0,4.9,73,0.00,,,0.00,WUHU216HW,2013-06-30 15:50:00,
2013-06-30 11:56:00,84.2,72.1,29.76,North,0,0.4,4.9,67,0.00,,,0.00,WUHU216HW,2013-06-30 15:56:00,
2013-06-30 12:01:00,84.6,73.4,29.76,North,0,0.2,4.9,69,0.00,,,0.00,WUHU216HW,2013-06-30 16:01:00,
2013-06-30 12:06:00,85.0,74.2,29.75,ENE,68,0.2,4.9,70,0.00,,,0.00,WUHU216HW,2013-06-30 16:06:00,
2013-06-30 12:11:00,85.3,72.7,29.76,NW,315,0.0,4.9,66,0.00,,,0.00,WUHU216HW,2013-06-30 16:11:00,
2013-06-30 12:16:00,85.7,73.5,29.76,SSW,203,5.4,5.4,67,0.00,,,0.00,WUHU216HW,2013-06-30 16:16:00,
2013-06-30 12:21:00,85.7,72.5,29.76,SSW,203,4.7,5.4,65,0.00,,,0.00,WUHU216HW,2013-06-30 16:21:00,
2013-06-30 12:26:00,85.9,72.7,29.76,SW,225,5.4,5.4,65,0.00,,,0.00,WUHU216HW,2013-06-30 16:26:00,
2013-06-30 12:30:00,85.5,72.8,29.76,WSW,248,2.0,4.9,66,0.00,,,0.00,WUHU216HW,2013-06-30 16:30:00,
2013-06-30 12:31:00,85.5,72.8,29.76,WSW,248,2.0,5.4,66,0.00,,,0.00,WUHU216HW,2013-06-30 16:31:00,
2013-06-30 12:36:00,85.5,72.8,29.76,WSW,248,2.0,4.9,66,0.00,,,0.00,WUHU216HW,2013-06-30 16:36:00,
2013-06-30 12:48:00,86.2,73.8,29.59,NNW,338,0.4,4.9,66,0.00,,,0.00,WUHU216HW,2013-06-30 16:48:00,
2013-06-30 12:53:00,86.2,73.8,29.59,NNW,338,0.4,4.9,66,0.00,,,0.00,WUHU216HW,2013-06-30 16:53:00,
2013-06-30 18:00:00,82.1,59.9,29.59,SW,225,1.3,4.9,47,0.00,,,0.00,WUHU216HW,2013-06-30 22:00:00,
2013-06-30 18:05:00,82.1,59.9,29.59,SW,225,1.3,4.9,47,0.00,,,0.00,WUHU216HW,2013-06-30 22:05:00,
2013-06-30 19:00:00,81.4,59.3,29.59,WSW,248,3.6,4.9,47,0.00,,,0.00,WUHU216HW,2013-06-30 23:00:00,
2013-06-30 19:05:00,81.4,59.3,29.59,South,180,7.4,7.4,47,0.00,,,0.00,WUHU216HW,2013-06-30 23:05:00,
2013-06-30 19:10:00,81.4,69.8,29.77,West,270,6.9,7.4,68,0.00,,,0.00,WUHU216HW,2013-06-30 23:10:00,
2013-06-30 19:15:00,81.4,69.8,29.77,WSW,248,2.2,6.9,68,0.00,,,0.00,WUHU216HW,2013-06-30 23:15:00,
2013-06-30 19:20:00,81.2,69.1,29.77,SSW,203,1.6,6.0,67,0.00,,,0.00,WUHU216HW,2013-06-30 23:20:00,
2013-06-30 19:25:00,81.0,69.0,29.77,West,270,3.1,4.9,67,0.00,,,0.00,WUHU216HW,2013-06-30 23:25:00,
2013-06-30 19:30:00,81.0,69.5,29.77,SSE,158,1.8,4.9,68,0.00,,,0.00,WUHU216HW,2013-06-30 23:30:00,
2013-06-30 19:35:00,80.8,69.3,29.77,SSE,158,1.6,4.9,68,0.00,,,0.00,WUHU216HW,2013-06-30 23:35:00,
2013-06-30 19:40:00,81.0,69.9,29.77,SSW,203,1.1,4.9,69,0.00,,,0.00,WUHU216HW,2013-06-30 23:40:00,
2013-06-30 19:45:00,80.6,70.0,29.77,ENE,68,0.4,4.9,70,0.00,,,0.00,WUHU216HW,2013-06-30 23:45:00,
2013-06-30 19:50:00,80.3,69.7,29.77,SE,135,0.2,4.9,70,0.00,,,0.00,WUHU216HW,2013-06-30 23:50:00,
2013-06-30 19:55:00,79.9,69.3,29.78,SW,225,2.0,4.9,70,0.00,,,0.00,WUHU216HW,2013-06-30 23:55:00,
2013-06-30 20:02:00,79.9,69.7,29.78,WSW,248,0.4,4.9,71,0.00,,,0.00,WUHU216HW,2013-07-01 00:02:00,
2013-06-30 20:07:00,79.7,69.5,29.78,SSE,158,0.2,4.9,71,0.00,,,0.00,WUHU216HW,2013-07-01 00:07:00,
2013-06-30 20:12:00,79.4,69.1,29.79,SSE,158,0.4,4.9,71,0.00,,,0.00,WUHU216HW,2013-07-01 00:12:00,
2013-06-30 20:17:00,79.2,69.4,29.78,ENE,68,1.1,4.9,72,0.00,,,0.00,WUHU216HW,2013-07-01 00:17:00,
2013-06-30 20:22:00,78.8,69.4,29.78,East,90,1.1,4.9,73,0.00,,,0.00,WUHU216HW,2013-07-01 00:22:00,
2013-06-30 20:27:00,78.7,69.7,29.78,SSW,203,0.9,4.9,74,0.00,,,0.00,WUHU216HW,2013-07-01 00:27:00,
2013-06-30 20:32:00,78.3,69.7,29.79,East,90,2.0,4.9,75,0.00,,,0.00,WUHU216HW,2013-07-01 00:32:00,
2013-06-30 20:37:00,78.1,69.1,29.79,SE,135,1.1,4.9,74,0.00,,,0.00,WUHU216HW,2013-07-01 00:37:00,
2013-06-30 20:42:00,77.9,69.3,29.79,SE,135,0.2,4.9,75,0.00,,,0.00,WUHU216HW,2013-07-01 00:42:00,
2013-06-30 20:47:00,77.8,69.2,29.79,SE,135,0.7,4.9,75,0.00,,,0.00,WUHU216HW,2013-07-01 00:47:00,
2013-06-30 20:52:00,77.8,69.6,29.79,ESE,113,0.7,4.9,76,0.00,,,0.00,WUHU216HW,2013-07-01 00:52:00,
2013-06-30 20:57:00,77.4,68.9,29.79,SSE,158,0.2,4.9,75,0.00,,,0.00,WUHU216HW,2013-07-01 00:57:00,
2013-06-30 21:02:00,77.4,68.9,29.80,SE,135,0.2,4.9,75,0.00,,,0.00,WUHU216HW,2013-07-01 01:02:00,
2013-06-30 21:07:00,77.2,69.0,29.79,SSE,158,2.0,4.9,76,0.00,,,0.00,WUHU216HW,2013-07-01 01:07:00,
2013-06-30 21:12:00,77.2,68.7,29.80,South,180,0.4,4.9,75,0.00,,,0.00,WUHU216HW,2013-07-01 01:12:00,
2013-06-30 21:17:00,77.2,68.7,29.80,ENE,68,0.0,4.9,75,0.00,,,0.00,WUHU216HW,2013-07-01 01:17:00,
2013-06-30 21:22:00,77.2,68.7,29.80,SE,135,0.0,4.9,75,0.00,,,0.00,WUHU216HW,2013-07-01 01:22:00,
2013-06-30 21:27:00,77.2,68.7,29.80,South,180,0.4,4.9,75,0.00,,,0.00,WUHU216HW,2013-07-01 01:27:00,
2013-06-30 21:32:00,77.0,68.5,29.80,WSW,248,1.1,4.9,75,0.00,,,0.00,WUHU216HW,2013-07-01 01:32:00,
2013-06-30 21:37:00,77.0,68.5,29.81,SSW,203,2.5,4.9,75,0.00,,,0.00,WUHU216HW,2013-07-01 01:37:00,
2013-06-30 21:42:00,77.0,68.5,29.81,SSE,158,1.6,4.9,75,0.00,,,0.00,WUHU216HW,2013-07-01 01:42:00,
2013-06-30 21:47:00,77.0,68.5,29.81,SSE,158,0.2,4.9,75,0.00,,,0.00,WUHU216HW,2013-07-01 01:47:00,
2013-06-30 21:52:00,77.0,68.5,29.82,SSE,158,0.4,4.9,75,0.00,,,0.00,WUHU216HW,2013-07-01 01:52:00,
2013-06-30 21:57:00,77.0,68.5,29.82,SSE,158,0.4,4.9,75,0.00,,,0.00,WUHU216HW,2013-07-01 01:57:00,
2013-06-30 22:02:00,77.0,68.5,29.82,North,0,0.7,4.9,75,0.00,,,0.00,WUHU216HW,2013-07-01 02:02:00,
2013-06-30 22:07:00,76.9,68.3,29.81,NNE,23,0.7,4.9,75,0.00,,,0.00,WUHU216HW,2013-07-01 02:07:00,
2013-06-30 22:12:00,76.5,68.0,29.82,SSW,203,0.2,4.9,75,0.00,,,0.00,WUHU216HW,2013-07-01 02:12:00,
2013-06-30 22:17:00,76.1,67.7,29.82,WSW,248,0.4,4.9,75,0.00,,,0.00,WUHU216HW,2013-07-01 02:17:00,
2013-06-30 22:22:00,76.1,67.7,29.82,WSW,248,0.0,4.9,75,0.00,,,0.00,WUHU216HW,2013-07-01 02:22:00,
2013-06-30 22:27:00,76.1,68.1,29.82,WSW,248,0.0,4.9,76,0.00,,,0.00,WUHU216HW,2013-07-01 02:27:00,
2013-06-30 22:32:00,76.1,68.1,29.82,SE,135,0.0,4.9,76,0.00,,,0.00,WUHU216HW,2013-07-01 02:32:00,
2013-06-30 22:38:00,76.0,67.9,29.82,SE,135,0.7,4.9,76,0.00,,,0.00,WUHU216HW,2013-07-01 02:38:00,
2013-06-30 22:43:00,76.0,67.9,29.82,SE,135,0.0,4.9,76,0.00,,,0.00,WUHU216HW,2013-07-01 02:43:00,
2013-06-30 22:48:00,75.8,67.7,29.82,SSE,158,0.4,4.9,76,0.00,,,0.00,WUHU216HW,2013-07-01 02:48:00,
2013-06-30 22:53:00,75.8,67.7,29.82,SSE,158,0.2,4.9,76,0.00,,,0.00,WUHU216HW,2013-07-01 02:53:00,
2013-06-30 22:58:00,75.6,68.0,29.82,SSE,158,0.2,4.9,77,0.00,,,0.00,WUHU216HW,2013-07-01 02:58:00,
2013-06-30 23:03:00,75.6,67.5,29.82,South,180,1.8,4.9,76,0.00,,,0.00,WUHU216HW,2013-07-01 03:03:00,
2013-06-30 23:08:00,75.6,67.5,29.82,SSE,158,1.3,5.6,76,0.00,,,0.00,WUHU216HW,2013-07-01 03:08:00,
2013-06-30 23:13:00,75.6,67.5,29.82,WSW,248,1.3,5.6,76,0.00,,,0.00,WUHU216HW,2013-07-01 03:13:00,
2013-06-30 23:18:00,75.6,68.0,29.82,WSW,248,0.0,4.9,77,0.00,,,0.00,WUHU216HW,2013-07-01 03:18:00,
2013-06-30 23:23:00,75.4,67.3,29.82,SE,135,0.9,4.9,76,0.00,,,0.00,WUHU216HW,2013-07-01 03:23:00,
2013-06-30 23:28:00,75.2,67.1,29.81,WSW,248,0.0,4.9,76,0.00,,,0.00,WUHU216HW,2013-07-01 03:28:00,
2013-06-30 23:33:00,75.1,67.4,29.81,WSW,248,0.0,4.9,77,0.00,,,0.00,WUHU216HW,2013-07-01 03:33:00,
2013-06-30 23:38:00,74.9,67.2,29.81,SSW,203,0.0,4.9,77,0.00,,,0.00,WUHU216HW,2013-07-01 03:38:00,
2013-06-30 23:43:00,75.1,67.4,29.82,SSW,203,0.0,4.9,77,0.00,,,0.00,WUHU216HW,2013-07-01 03:43:00,
2013-06-30 23:48:00,75.1,67.4,29.82,SSE,158,0.4,4.9,77,0.00,,,0.00,WUHU216HW,2013-07-01 03:48:00,
2013-06-30 23:53:00,75.1,67.4,29.82,SSE,158,0.0,4.9,77,0.00,,,0.00,WUHU216HW,2013-07-01 03:53:00,
2013-06-30 23:58:00,74.9,67.2,29.82,SSE,158,0.0,4.9,77,0.00,,,0.00,WUHU216HW,2013-07-01 03:58:00,